createdAt,value
2023-05-14T08:01:13.049Z,94773.00
2023-05-14T08:02:13.112Z,94769.00
2023-05-14T08:03:13.207Z,94769.00
2023-05-14T08:04:13.218Z,94767.00
2023-05-14T08:05:13.145Z,94764.00
2023-05-14T08:06:13.174Z,94765.00
2023-05-14T08:07:13.200Z,94764.00
2023-05-14T08:08:13.233Z,94764.00
2023-05-14T08:09:13.290Z,94762.00
2023-05-14T08:10:13.318Z,94762.00
2023-05-14T08:11:13.386Z,94760.00
2023-05-14T08:12:13.334Z,94758.00
2023-05-14T08:13:13.333Z,94758.00
2023-05-14T08:14:13.349Z,94756.00
2023-05-14T08:15:13.364Z,94752.00
2023-05-14T08:16:13.375Z,94752.00
2023-05-14T08:17:13.467Z,94748.00
2023-05-14T08:18:13.526Z,94744.00
2023-05-14T08:19:13.803Z,94742.00
2023-05-14T08:20:13.596Z,94740.00
2023-05-14T08:21:13.708Z,94742.00
2023-05-14T08:22:13.731Z,94740.00
2023-05-14T08:23:13.778Z,94740.00
2023-05-14T08:24:13.842Z,94738.00
2023-05-14T08:25:13.917Z,94738.00
2023-05-14T08:26:13.959Z,94738.00
2023-05-14T08:27:14.042Z,94740.00
2023-05-14T08:28:14.055Z,94738.00
2023-05-14T08:29:16.241Z,94738.00
2023-05-14T08:30:14.354Z,94736.00
2023-05-14T08:31:14.462Z,94732.00
2023-05-14T08:32:22.734Z,94734.00
2023-05-14T08:33:15.466Z,94734.00
2023-05-14T08:34:14.448Z,94734.00
2023-05-14T08:35:14.423Z,94732.00
2023-05-14T08:36:14.414Z,94732.00
2023-05-14T08:37:14.391Z,94732.00
2023-05-14T08:38:14.393Z,94730.00
2023-05-14T08:39:14.411Z,94732.00
2023-05-14T08:40:14.409Z,94730.00
2023-05-14T08:41:14.371Z,94728.00
2023-05-14T08:42:14.351Z,94730.00
2023-05-14T08:43:14.374Z,94728.00
2023-05-14T08:44:14.429Z,94726.00
2023-05-14T08:45:14.437Z,94726.00
2023-05-14T08:46:14.501Z,94724.00
2023-05-14T08:47:14.497Z,94722.00
2023-05-14T08:48:14.677Z,94724.00
2023-05-14T08:49:14.604Z,94722.00
2023-05-14T08:50:14.612Z,94726.00
2023-05-14T08:51:14.619Z,94722.00
2023-05-14T08:52:14.700Z,94724.00
2023-05-14T08:53:14.717Z,94722.00
2023-05-14T08:54:14.782Z,94720.00
2023-05-14T08:55:14.762Z,94722.00
2023-05-14T08:56:14.817Z,94720.00
2023-05-14T08:57:14.888Z,94720.00
2023-05-14T08:58:14.871Z,94718.00
2023-05-14T08:59:14.919Z,94720.00
2023-05-14T09:00:14.925Z,94718.00
2023-05-14T09:01:15.070Z,94715.00
2023-05-14T09:02:15.088Z,94715.00
2023-05-14T09:03:15.103Z,94715.00
2023-05-14T09:04:15.177Z,94715.00
2023-05-14T09:05:15.128Z,94713.00
2023-05-14T09:06:15.150Z,94713.00
2023-05-14T09:07:15.167Z,94711.00
2023-05-14T09:08:15.215Z,94711.00
2023-05-14T09:09:15.255Z,94709.00
2023-05-14T09:10:15.282Z,94711.00
2023-05-14T09:11:15.300Z,94709.00
2023-05-14T09:12:15.352Z,94707.00
2023-05-14T09:13:15.377Z,94711.00
2023-05-14T09:14:15.372Z,94711.00
2023-05-14T09:15:15.437Z,94709.00
2023-05-14T09:16:15.470Z,94711.00
2023-05-14T09:17:15.462Z,94711.00
2023-05-14T09:18:15.509Z,94711.00
2023-05-14T09:19:15.691Z,94705.00
2023-05-14T09:20:15.568Z,94703.00
2023-05-14T09:21:15.569Z,94705.00
2023-05-14T09:22:15.621Z,94699.00
2023-05-14T09:23:15.669Z,94697.00
2023-05-14T09:24:15.640Z,94699.00
2023-05-14T09:25:15.700Z,94697.00
2023-05-14T09:26:15.700Z,94695.00
2023-05-14T09:27:15.727Z,94691.00
2023-05-14T09:28:15.796Z,94687.00
2023-05-14T09:29:15.791Z,94687.00
2023-05-14T09:30:15.810Z,94691.00
2023-05-14T09:31:15.881Z,94691.00
2023-05-14T09:32:15.843Z,94687.00
2023-05-14T09:33:15.878Z,94689.00
2023-05-14T09:34:15.909Z,94687.00
2023-05-14T09:35:15.924Z,94685.00
2023-05-14T09:36:15.953Z,94683.00
2023-05-14T09:37:15.977Z,94685.00
2023-05-14T09:38:15.981Z,94683.00
2023-05-14T09:39:16.021Z,94681.00
2023-05-14T09:40:16.044Z,94679.00
2023-05-14T09:41:16.101Z,94675.00
2023-05-14T09:42:16.088Z,94673.00
2023-05-14T09:43:16.090Z,94677.00
2023-05-14T09:44:16.125Z,94669.00
2023-05-14T09:45:16.192Z,94667.00
2023-05-14T09:46:16.169Z,94667.00
2023-05-14T09:47:16.294Z,94667.00
2023-05-14T09:48:16.276Z,94663.00
2023-05-14T09:49:16.250Z,94662.00
2023-05-14T09:50:16.266Z,94658.00
2023-05-14T09:51:16.290Z,94660.00
2023-05-14T09:52:16.354Z,94656.00
2023-05-14T09:53:16.337Z,94658.00
2023-05-14T09:54:16.337Z,94656.00
2023-05-14T09:55:16.389Z,94656.00
2023-05-14T09:56:16.424Z,94652.00
2023-05-14T09:57:16.444Z,94656.00
2023-05-14T09:58:16.451Z,94654.00
2023-05-14T09:59:16.462Z,94654.00
2023-05-14T10:00:16.483Z,94652.00
2023-05-14T10:01:16.534Z,94652.00
2023-05-14T10:02:16.529Z,94650.00
2023-05-14T10:03:19.622Z,94650.00
2023-05-14T10:04:16.607Z,94650.00
2023-05-14T10:05:16.546Z,94654.00
2023-05-14T10:06:16.547Z,94654.00
2023-05-14T10:07:16.553Z,94650.00
2023-05-14T10:08:16.493Z,94648.00
2023-05-14T10:09:16.511Z,94652.00
2023-05-14T10:10:16.502Z,94648.00
2023-05-14T10:11:16.491Z,94654.00
2023-05-14T10:12:16.471Z,94652.00
2023-05-14T10:13:16.448Z,94652.00
2023-05-14T10:14:16.484Z,94652.00
2023-05-14T10:15:16.428Z,94652.00
2023-05-14T10:16:16.524Z,94652.00
2023-05-14T10:17:16.442Z,94650.00
2023-05-14T10:18:16.465Z,94646.00
2023-05-14T10:19:16.835Z,94646.00
2023-05-14T10:20:16.419Z,94646.00
2023-05-14T10:21:16.410Z,94644.00
2023-05-14T10:22:16.421Z,94644.00
2023-05-14T10:23:16.399Z,94642.00
2023-05-14T10:24:16.435Z,94638.00
2023-05-14T10:25:16.381Z,94640.00
2023-05-14T10:26:16.407Z,94634.00
2023-05-14T10:27:16.385Z,94634.00
2023-05-14T10:28:16.337Z,94624.00
2023-05-14T10:29:16.351Z,94624.00
2023-05-14T10:30:16.339Z,94632.00
2023-05-14T10:31:16.405Z,94624.00
2023-05-14T10:32:16.321Z,94618.00
2023-05-14T10:33:16.415Z,94620.00
2023-05-14T10:34:16.319Z,94622.00
2023-05-14T10:35:16.318Z,94620.00
2023-05-14T10:36:16.285Z,94620.00
2023-05-14T10:37:16.298Z,94620.00
2023-05-14T10:38:16.306Z,94618.00
2023-05-14T10:39:16.271Z,94620.00
2023-05-14T10:40:16.286Z,94620.00
2023-05-14T10:41:16.244Z,94620.00
2023-05-14T10:42:16.266Z,94618.00
2023-05-14T10:43:16.235Z,94617.00
2023-05-14T10:44:16.244Z,94620.00
2023-05-14T10:45:16.218Z,94620.00
2023-05-14T10:46:16.253Z,94618.00
2023-05-14T10:47:16.206Z,94618.00
2023-05-14T10:48:16.325Z,94617.00
2023-05-14T10:49:20.982Z,94620.00
2023-05-14T10:50:17.226Z,94617.00
2023-05-14T10:51:16.244Z,94617.00
2023-05-14T10:52:16.179Z,94615.00
2023-05-14T10:53:16.185Z,94615.00
2023-05-14T10:54:16.181Z,94613.00
2023-05-14T10:55:16.180Z,94611.00
2023-05-14T10:56:16.170Z,94607.00
2023-05-14T10:57:16.152Z,94605.00
2023-05-14T10:58:16.127Z,94607.00
2023-05-14T10:59:16.115Z,94605.00
2023-05-14T11:00:16.121Z,94601.00
2023-05-14T11:01:16.111Z,94599.00
2023-05-14T11:02:16.170Z,94595.00
2023-05-14T11:03:16.125Z,94593.00
2023-05-14T11:04:16.190Z,94587.00
2023-05-14T11:05:16.271Z,94587.00
2023-05-14T11:06:16.148Z,94585.00
2023-05-14T11:07:16.080Z,94587.00
2023-05-14T11:08:16.063Z,94587.00
2023-05-14T11:09:16.055Z,94583.00
2023-05-14T11:10:16.048Z,94583.00
2023-05-14T11:11:16.048Z,94583.00
2023-05-14T11:12:16.016Z,94583.00
2023-05-14T11:13:16.091Z,94583.00
2023-05-14T11:14:16.050Z,94583.00
2023-05-14T11:15:16.025Z,94585.00
2023-05-14T11:16:23.448Z,94581.00
2023-05-14T11:17:17.129Z,94583.00
2023-05-14T11:18:16.028Z,94579.00
2023-05-14T11:19:16.011Z,94577.00
2023-05-14T11:20:16.017Z,94575.00
2023-05-14T11:21:16.021Z,94571.00
2023-05-14T11:22:15.967Z,94571.00
2023-05-14T11:23:15.968Z,94570.00
2023-05-14T11:24:15.988Z,94570.00
2023-05-14T11:25:15.964Z,94568.00
2023-05-14T11:26:15.965Z,94568.00
2023-05-14T11:27:15.958Z,94566.00
2023-05-14T11:28:15.917Z,94566.00
2023-05-14T11:29:16.032Z,94566.00
2023-05-14T11:30:15.919Z,94564.00
2023-05-14T11:31:15.913Z,94568.00
2023-05-14T11:32:15.897Z,94564.00
2023-05-14T11:33:15.928Z,94564.00
2023-05-14T11:34:15.890Z,94562.00
2023-05-14T11:35:15.883Z,94562.00
2023-05-14T11:36:15.845Z,94562.00
2023-05-14T11:37:15.865Z,94562.00
2023-05-14T11:38:15.853Z,94560.00
2023-05-14T11:39:15.833Z,94558.00
2023-05-14T11:40:15.840Z,94558.00
2023-05-14T11:41:15.841Z,94558.00
2023-05-14T11:42:15.836Z,94560.00
2023-05-14T11:43:15.823Z,94558.00
2023-05-14T11:44:15.790Z,94558.00
2023-05-14T11:45:15.785Z,94558.00
2023-05-14T11:46:15.863Z,94558.00
2023-05-14T11:47:15.813Z,94560.00
2023-05-14T11:48:15.870Z,94556.00
2023-05-14T11:49:15.768Z,94560.00
2023-05-14T11:50:15.822Z,94560.00
2023-05-14T11:51:15.770Z,94558.00
2023-05-14T11:52:15.774Z,94556.00
2023-05-14T11:53:15.766Z,94556.00
2023-05-14T11:54:15.734Z,94556.00
2023-05-14T11:55:15.741Z,94556.00
2023-05-14T11:56:15.748Z,94556.00
2023-05-14T11:57:15.758Z,94552.00
2023-05-14T11:58:15.757Z,94552.00
2023-05-14T11:59:15.784Z,94552.00
2023-05-14T12:00:15.783Z,94552.00
2023-05-14T12:01:15.787Z,94550.00
2023-05-14T12:02:15.832Z,94550.00
2023-05-14T12:03:15.944Z,94550.00
2023-05-14T12:04:15.892Z,94550.00
2023-05-14T12:05:15.824Z,94546.00
2023-05-14T12:06:15.848Z,94546.00
2023-05-14T12:07:15.829Z,94546.00
2023-05-14T12:08:15.863Z,94546.00
2023-05-14T12:09:15.882Z,94544.00
2023-05-14T12:10:15.924Z,94542.00
2023-05-14T12:11:15.868Z,94546.00
2023-05-14T12:12:15.905Z,94544.00
2023-05-14T12:13:15.902Z,94544.00
2023-05-14T12:14:15.903Z,94544.00
2023-05-14T12:15:15.919Z,94546.00
2023-05-14T12:16:15.988Z,94548.00
2023-05-14T12:17:15.912Z,94546.00
2023-05-14T12:18:23.918Z,94542.00
2023-05-14T12:19:16.964Z,94544.00
2023-05-14T12:20:15.928Z,94542.00
2023-05-14T12:21:15.924Z,94542.00
2023-05-14T12:22:15.911Z,94544.00
2023-05-14T12:23:15.897Z,94544.00
2023-05-14T12:24:15.880Z,94542.00
2023-05-14T12:25:15.886Z,94542.00
2023-05-14T12:26:15.882Z,94540.00
2023-05-14T12:27:15.866Z,94540.00
2023-05-14T12:28:15.910Z,94540.00
2023-05-14T12:29:15.876Z,94540.00
2023-05-14T12:30:21.946Z,94538.00
2023-05-14T12:31:16.883Z,94536.00
2023-05-14T12:32:15.829Z,94536.00
2023-05-14T12:33:15.811Z,94536.00
2023-05-14T12:34:15.799Z,94534.00
2023-05-14T12:35:15.801Z,94534.00
2023-05-14T12:36:21.977Z,94532.00
2023-05-14T12:37:16.794Z,94534.00
2023-05-14T12:38:15.780Z,94530.00
2023-05-14T12:39:15.769Z,94532.00
2023-05-14T12:40:15.783Z,94530.00
2023-05-14T12:41:15.792Z,94530.00
2023-05-14T12:42:15.754Z,94530.00
2023-05-14T12:43:15.761Z,94526.00
2023-05-14T12:44:15.749Z,94524.00
2023-05-14T12:45:15.736Z,94526.00
2023-05-14T12:46:15.719Z,94526.00
2023-05-14T12:47:15.791Z,94526.00
2023-05-14T12:48:15.756Z,94528.00
2023-05-14T12:49:15.715Z,94524.00
2023-05-14T12:50:15.669Z,94528.00
2023-05-14T12:51:15.692Z,94526.00
2023-05-14T12:52:22.754Z,94524.00
2023-05-14T12:53:16.712Z,94524.00
2023-05-14T12:54:15.664Z,94524.00
2023-05-14T12:55:15.666Z,94524.00
2023-05-14T12:56:15.652Z,94526.00
2023-05-14T12:57:15.664Z,94524.00
2023-05-14T12:58:15.637Z,94524.00
2023-05-14T12:59:15.601Z,94528.00
2023-05-14T13:00:15.698Z,94526.00
